CheckWX is a tool to help pilots better visualize weather data.  It is not intended as a substitute for an official pre-flight weather briefing.

15:19:04 UTC

KISW METAR
Alexander Field South Wood County Airport
Wisconsin Rapids, Wisconsin, USA
Current

25 mins ago

KISW 261454Z AUTO 07005KT 10SM CLR 19/08 A3009 RMK AO2 SLP187 T01890083 53008 TSNO
Observed
May-26 @ 14:54 UTC
Wind
  • 070° at 5 KTS
Visibility
10 SM
Flight Rules
VFR
Cloud Levels
  • Clear skies
Temperature
19°C / 66°F
Dewpoint
C / 46°F
Humidity
49%
Altimeter
30.09" Hg
Pressure
1018.92 hPa
Previous

1 hour ago

KISW 261354Z AUTO 06006KT 10SM CLR 17/09 A3007 RMK AO2 SLP182 T01720094 TSNO
Observed
May-26 @ 13:54 UTC
Wind
  • 060° at 6 KTS
Visibility
10 SM
Flight Rules
VFR
Cloud Levels
  • Clear skies
Temperature
17°C / 63°F
Dewpoint
C / 48°F
Humidity
59%
Altimeter
30.07" Hg
Pressure
1018.32 hPa
Previous

2 hours ago

KISW 261254Z AUTO 03009KT 10SM CLR 14/09 A3006 RMK AO2 SLP179 T01390094 TSNO
Observed
May-26 @ 12:54 UTC
Wind
  • 030° at 9 KTS
Visibility
10 SM
Flight Rules
VFR
Cloud Levels
  • Clear skies
Temperature
14°C / 57°F
Dewpoint
C / 48°F
Humidity
72%
Altimeter
30.06" Hg
Pressure
1017.92 hPa